Terminal Aerodrome Forecast
Issued by NWS Blacksburg, VA

Home | Current Version | Previous Version | Text Only | Print | Product List | Glossary On
Versions: 1 2 3 4 5 6 7 8 9 10 11 12 13 14 15 16 17 18 19 20 21 22 23 24 25 26
000
FTUS41 KRNK 011128
TAFROA
TAF
KROA 011128Z 0112/0212 13005KT 6SM -RA SCT025 OVC035
     FM011400 07007KT 4SM SHRA BR SCT007 OVC025
     FM011700 05008KT 2SM RA BR BKN005 OVC012
     FM012100 05005KT 5SM -RA BR BKN003 OVC015
     FM020500 VRB03KT 4SM -DZ BR OVC005=

USA.gov is the U.S. government's official web portal to all federal, state and local government web resources and services.